Time;durP1;ratioP1;P1;durP2;ratioP2;P2;SDS_P1;SDS_P2;PMS_P1;PMS_P2;Temp;Humidity;BMP_temperature;BMP_pressure;BME280_temperature;BME280_humidity;BME280_pressure;Samples;Min_cycle;Max_cycle;Signal;HPM_P1;HPM_P2
2022/03/28 00:05:01;;;;;;;15.53;11.03;;;;;;;;;;762726;78;26186;-71
2022/03/28 00:06:07;;;;;;;12.05;9.60;;;;;;;;;;762547;78;26262;-73
2022/03/28 00:07:11;;;;;;;15.40;11.33;;;;;;;;;;762455;77;26265;-71
2022/03/28 00:08:14;;;;;;;12.23;10.13;;;;;;;;;;762590;78;26272;-71
2022/03/28 00:09:18;;;;;;;13.18;10.50;;;;;;;;;;762669;78;26278;-71
2022/03/28 00:10:21;;;;;;;11.63;10.43;;;;;;;;;;762559;78;26316;-71
2022/03/28 00:11:25;;;;;;;14.23;10.40;;;;;;;;;;762667;78;26332;-71
2022/03/28 00:14:47;;;;;;;15.45;10.25;;;;;;;;;;774221;76;26662;-72
2022/03/28 00:15:50;;;;;;;13.30;9.95;;;;;;;;;;792390;74;26296;-72
2022/03/28 00:16:57;;;;;;;13.08;10.48;;;;;;;;;;792112;75;26676;-72
2022/03/28 00:18:01;;;;;;;13.45;10.98;;;;;;;;;;792224;75;26220;-71
2022/03/28 00:19:04;;;;;;;12.25;9.43;;;;;;;;;;781372;76;26248;-72
2022/03/28 00:20:09;;;;;;;14.93;9.98;;;;;;;;;;781253;75;26329;-72
2022/03/28 00:21:13;;;;;;;11.78;9.55;;;;;;;;;;788654;75;26227;-72
2022/03/28 00:30:28;;;;;;;11.25;9.10;;;;;;;;;;774579;76;26126;-70
2022/03/28 00:33:47;;;;;;;12.05;9.50;;;;;;;;;;774879;76;26700;-71
2022/03/28 00:34:50;;;;;;;14.85;10.05;;;;;;;;;;774497;75;26311;-71
2022/03/28 00:35:53;;;;;;;12.85;10.70;;;;;;;;;;774560;76;26241;-71
2022/03/28 00:36:59;;;;;;;13.75;11.38;;;;;;;;;;774661;76;26241;-72
2022/03/28 00:38:02;;;;;;;15.70;12.05;;;;;;;;;;784407;75;26322;-75
2022/03/28 00:39:06;;;;;;;20.62;14.40;;;;;;;;;;784128;75;26322;-71
2022/03/28 00:40:10;;;;;;;20.92;15.55;;;;;;;;;;775175;76;26342;-72
2022/03/28 00:41:13;;;;;;;24.82;17.50;;;;;;;;;;775187;76;26330;-71
2022/03/28 00:55:08;;;;;;;27.42;18.42;;;;;;;;;;769573;77;26159;-71
2022/03/28 00:56:15;;;;;;;29.45;18.65;;;;;;;;;;769395;77;26712;-71
2022/03/28 00:57:19;;;;;;;23.35;18.10;;;;;;;;;;769498;77;26300;-70
2022/03/28 00:58:24;;;;;;;23.85;18.12;;;;;;;;;;769396;77;26248;-71
2022/03/28 00:59:26;;;;;;;26.75;18.23;;;;;;;;;;769358;77;26246;-72
2022/03/28 01:00:32;;;;;;;23.80;15.95;;;;;;;;;;769424;77;26377;-71
2022/03/28 01:05:07;;;;;;;21.52;15.93;;;;;;;;;;770679;77;26252;-72
2022/03/28 01:06:11;;;;;;;25.30;17.15;;;;;;;;;;770147;77;26308;-71
2022/03/28 01:07:14;;;;;;;20.97;15.83;;;;;;;;;;769338;77;26317;-71
2022/03/28 01:08:22;;;;;;;23.40;16.52;;;;;;;;;;769409;77;26242;-71
2022/03/28 01:09:26;;;;;;;22.40;16.93;;;;;;;;;;769466;77;26250;-70
2022/03/28 01:10:30;;;;;;;24.15;16.55;;;;;;;;;;769659;77;26254;-73
2022/03/28 01:15:04;;;;;;;22.70;16.12;;;;;;;;;;769711;77;26625;-71
2022/03/28 01:16:08;;;;;;;23.77;17.10;;;;;;;;;;769554;77;26715;-71
2022/03/28 01:18:32;;;;;;;24.27;17.98;;;;;;;;;;769701;77;26296;-71
2022/03/28 01:19:35;;;;;;;25.08;17.65;;;;;;;;;;769982;77;26254;-70
2022/03/28 01:20:40;;;;;;;21.82;16.80;;;;;;;;;;769954;77;26250;-72
2022/03/28 01:28:55;;;;;;;26.75;18.40;;;;;;;;;;771139;77;26156;-73
2022/03/28 01:30:00;;;;;;;22.50;18.67;;;;;;;;;;770661;77;26249;-71
2022/03/28 01:37:08;;;;;;;20.30;16.05;;;;;;;;;;778656;76;26153;-71
2022/03/28 01:38:13;;;;;;;22.85;16.35;;;;;;;;;;778419;76;26766;-72
2022/03/28 01:39:16;;;;;;;25.80;18.20;;;;;;;;;;778426;76;26268;-71
2022/03/28 01:40:19;;;;;;;26.45;17.87;;;;;;;;;;766624;77;26324;-71
2022/03/28 01:45:03;;;;;;;25.02;17.95;;;;;;;;;;779342;76;26663;-71
2022/03/28 01:46:07;;;;;;;25.50;18.32;;;;;;;;;;778944;76;26266;-72
2022/03/28 01:47:12;;;;;;;25.02;17.37;;;;;;;;;;779754;76;26654;-71
2022/03/28 01:48:16;;;;;;;25.00;18.12;;;;;;;;;;779858;76;26714;-70
2022/03/28 01:49:20;;;;;;;23.75;18.60;;;;;;;;;;779888;76;24616;-71
2022/03/28 01:50:23;;;;;;;25.75;18.95;;;;;;;;;;779371;76;26686;-72
2022/03/28 01:55:15;;;;;;;24.23;18.00;;;;;;;;;;791855;75;26151;-71
2022/03/28 01:56:18;;;;;;;24.18;17.75;;;;;;;;;;791838;75;26758;-71
2022/03/28 01:57:22;;;;;;;21.12;16.73;;;;;;;;;;791851;75;26309;-72
2022/03/28 01:58:26;;;;;;;22.30;17.37;;;;;;;;;;791859;75;26325;-71
2022/03/28 01:59:29;;;;;;;20.60;17.57;;;;;;;;;;791840;75;26671;-71
2022/03/28 02:00:32;;;;;;;24.47;17.82;;;;;;;;;;791761;74;26776;-71
2022/03/28 02:04:04;;;;;;;22.90;16.95;;;;;;;;;;791901;75;26837;-71
2022/03/28 02:05:11;;;;;;;23.75;16.87;;;;;;;;;;791851;75;26333;-70
2022/03/28 02:06:14;;;;;;;22.22;17.35;;;;;;;;;;791832;75;26229;-71
2022/03/28 02:07:17;;;;;;;22.70;17.70;;;;;;;;;;791816;74;26239;-70
2022/03/28 02:08:20;;;;;;;22.73;17.30;;;;;;;;;;791801;75;26734;-71
2022/03/28 02:09:23;;;;;;;22.22;17.62;;;;;;;;;;791865;75;26289;-71
2022/03/28 02:10:28;;;;;;;21.33;16.75;;;;;;;;;;791772;75;26320;-71
2022/03/28 02:15:14;;;;;;;22.13;15.25;;;;;;;;;;778387;76;26552;-71
2022/03/28 02:16:22;;;;;;;23.50;16.80;;;;;;;;;;778830;76;26249;-71
2022/03/28 02:17:26;;;;;;;22.10;16.23;;;;;;;;;;779221;76;26385;-71
2022/03/28 02:18:31;;;;;;;20.55;16.27;;;;;;;;;;778483;76;26262;-72
2022/03/28 02:19:35;;;;;;;21.50;16.65;;;;;;;;;;775341;76;26238;-71
2022/03/28 02:20:40;;;;;;;22.90;16.62;;;;;;;;;;778660;76;26252;-73
2022/03/28 02:27:36;;;;;;;23.02;16.48;;;;;;;;;;791989;75;26226;-72
2022/03/28 02:28:39;;;;;;;23.20;15.68;;;;;;;;;;791909;75;26805;-72
2022/03/28 02:29:44;;;;;;;23.60;16.48;;;;;;;;;;791974;75;26321;-70
2022/03/28 02:34:18;;;;;;;19.42;15.05;;;;;;;;;;791883;75;26164;-71
2022/03/28 02:35:20;;;;;;;19.10;15.23;;;;;;;;;;791816;75;26700;-71
2022/03/28 02:36:23;;;;;;;21.52;15.95;;;;;;;;;;791815;75;26681;-71
2022/03/28 02:37:26;;;;;;;20.17;15.43;;;;;;;;;;791751;75;26300;-72
2022/03/28 02:38:33;;;;;;;21.62;16.00;;;;;;;;;;791826;75;26243;-71
2022/03/28 02:39:38;;;;;;;21.82;15.95;;;;;;;;;;791707;75;26239;-72
2022/03/28 02:44:10;;;;;;;23.67;15.80;;;;;;;;;;791808;75;26156;-71
2022/03/28 02:45:13;;;;;;;23.00;15.58;;;;;;;;;;791931;74;26230;-71
2022/03/28 02:46:16;;;;;;;24.57;16.70;;;;;;;;;;791866;75;26297;-71
2022/03/28 02:47:20;;;;;;;23.00;16.30;;;;;;;;;;791876;75;26237;-71
2022/03/28 02:48:26;;;;;;;20.23;15.48;;;;;;;;;;791756;74;26387;-71
2022/03/28 02:49:29;;;;;;;24.65;16.12;;;;;;;;;;791794;75;26285;-72
2022/03/28 02:50:33;;;;;;;19.37;15.25;;;;;;;;;;791966;75;26706;-71
2022/03/28 02:53:51;;;;;;;18.20;15.10;;;;;;;;;;792045;75;26179;-71
2022/03/28 02:54:56;;;;;;;19.50;14.90;;;;;;;;;;791854;75;26235;-70
2022/03/28 02:55:59;;;;;;;22.35;17.20;;;;;;;;;;791810;75;26240;-71
2022/03/28 02:57:03;;;;;;;21.60;16.70;;;;;;;;;;791772;75;26237;-71
2022/03/28 02:58:06;;;;;;;23.80;16.82;;;;;;;;;;791732;75;26736;-71
2022/03/28 02:59:12;;;;;;;20.40;16.30;;;;;;;;;;791791;75;26694;-72
2022/03/28 03:00:16;;;;;;;23.27;16.73;;;;;;;11.42;77.05;123554.15;791773;75;26243;-71
2022/03/28 03:04:57;;;;;;;25.05;16.50;;;;;;;;;;792448;75;26245;-71
2022/03/28 03:06:00;;;;;;;24.80;17.42;;;;;;;;;;791846;75;24266;-72
2022/03/28 03:14:06;;;;;;;20.12;15.60;;;;;;;;;;791846;75;26741;-71
2022/03/28 03:15:10;;;;;;;24.60;16.40;;;;;;;;;;791815;75;26710;-71
2022/03/28 03:16:13;;;;;;;21.80;16.67;;;;;;;;;;791850;75;26420;-71
2022/03/28 03:17:18;;;;;;;20.85;16.70;;;;;;;;;;792162;75;26232;-70
2022/03/28 03:18:21;;;;;;;23.77;16.85;;;;;;;;;;792235;75;26218;-72
2022/03/28 03:19:23;;;;;;;24.32;17.62;;;;;;;;;;792075;75;26238;-72
2022/03/28 03:20:27;;;;;;;18.65;15.78;;;;;;;;;;779414;76;26276;-72
2022/03/28 03:23:48;;;;;;;20.25;15.85;;;;;;;;;;778552;76;26170;-70
2022/03/28 03:24:51;;;;;;;19.50;16.17;;;;;;;;;;778461;76;26249;-72
2022/03/28 03:25:54;;;;;;;23.73;16.80;;;;;;;;;;778388;76;24608;-71
2022/03/28 03:26:57;;;;;;;21.87;15.90;;;;;;;;;;778473;76;26249;-71
2022/03/28 03:28:00;;;;;;;22.07;15.60;;;;;;;;;;778694;76;26242;-71
2022/03/28 03:29:03;;;;;;;20.95;15.93;;;;;;;;;;778985;76;26314;-71
2022/03/28 03:30:07;;;;;;;22.42;16.65;;;;;;;;;;779011;76;26241;-72
2022/03/28 03:34:54;;;;;;;20.80;15.48;;;;;;;;;;791973;75;26613;-72
2022/03/28 03:35:58;;;;;;;21.85;17.75;;;;;;;;;;792055;75;26284;-73
2022/03/28 03:37:02;;;;;;;23.18;16.50;;;;;;;;;;788161;75;26231;-72
2022/03/28 03:38:05;;;;;;;23.00;16.77;;;;;;;;;;792063;74;26302;-71
2022/03/28 03:39:08;;;;;;;20.77;16.35;;;;;;;;;;791914;75;26231;-71
2022/03/28 03:40:12;;;;;;;21.97;17.20;;;;;;;;;;792116;75;26240;-72
2022/03/28 03:44:32;;;;;;;20.10;14.80;;;;;;;;;;792539;75;26136;-73
2022/03/28 03:45:35;;;;;;;22.62;16.57;;;;;;;;;;792535;75;26790;-70
2022/03/28 03:46:39;;;;;;;21.75;16.87;;;;;;;;;;792222;75;26734;-70
2022/03/28 03:47:42;;;;;;;22.02;15.60;;;;;;;;;;792280;74;26332;-70
2022/03/28 03:48:45;;;;;;;19.92;16.27;;;;;;;;;;792529;75;26308;-72
2022/03/28 03:49:49;;;;;;;21.60;16.40;;;;;;;;;;792438;75;26251;-72
2022/03/28 03:52:55;;;;;;;23.10;15.58;;;;;;;;;;791834;75;26721;-71
2022/03/28 03:53:58;;;;;;;21.35;16.05;;;;;;;;;;791839;75;26254;-71
2022/03/28 03:59:25;;;;;;;21.45;14.60;;;;;;;;;;791895;75;26706;-71
2022/03/28 04:04:24;;;;;;;23.35;17.00;;;;;;;;;;792536;75;26237;-71
2022/03/28 04:05:27;;;;;;;22.37;16.60;;;;;;;;;;792619;75;26287;-73
2022/03/28 04:06:34;;;;;;;26.77;17.07;;;;;;;;;;793191;75;26689;-71
2022/03/28 04:07:37;;;;;;;21.85;16.37;;;;;;;;;;794128;75;26213;-72
2022/03/28 04:08:40;;;;;;;23.22;17.40;;;;;;;;;;794250;75;26662;-74
2022/03/28 04:09:43;;;;;;;22.98;17.60;;;;;;;;;;794071;75;26313;-72
2022/03/28 04:12:43;;;;;;;22.45;17.30;;;;;;;;;;776604;76;26257;-71
2022/03/28 04:13:47;;;;;;;23.47;17.07;;;;;;;;;;776552;76;26336;-71
2022/03/28 04:14:50;;;;;;;18.50;15.58;;;;;;;;;;776586;76;26251;-72
2022/03/28 04:15:53;;;;;;;22.42;17.32;;;;;;;;;;776631;76;26236;-73
2022/03/28 04:16:58;;;;;;;23.85;16.67;;;;;;;10.95;100.00;123554.15;776561;76;26247;-72
2022/03/28 04:18:01;;;;;;;21.30;16.62;;;;;;;;;;777281;76;26297;-73
2022/03/28 04:19:04;;;;;;;20.97;16.85;;;;;;;;;;777295;76;26239;-73
2022/03/28 04:25:41;;;;;;;21.12;15.70;;;;;;;;;;776140;76;26631;-71
2022/03/28 04:26:44;;;;;;;21.97;16.73;;;;;;;;;;761313;77;26272;-72
2022/03/28 04:27:48;;;;;;;23.60;15.48;;;;;;;;;;763357;77;26263;-72
2022/03/28 04:28:51;;;;;;;25.17;15.48;;;;;;;;;;763309;77;26333;-72
2022/03/28 04:29:56;;;;;;;20.40;15.55;;;;;;;;;;763384;77;26361;-71
2022/03/28 04:33:02;;;;;;;20.82;14.65;;;;;;;;;;773259;76;26247;-73
2022/03/28 04:34:07;;;;;;;25.65;15.85;;;;;;;;;;773292;76;26670;-71
2022/03/28 04:35:11;;;;;;;19.73;15.60;;;;;;;;;;774266;76;26245;-71
2022/03/28 04:36:17;;;;;;;23.57;16.02;;;;;;;;;;773438;76;26261;-71
2022/03/28 04:37:26;;;;;;;21.27;15.50;;;;;;;;;;773481;76;26241;-71
2022/03/28 04:38:29;;;;;;;22.58;16.15;;;;;;;;;;773331;76;26248;-73
2022/03/28 04:39:32;;;;;;;20.72;15.43;;;;;;;;;;752623;78;26721;-72
2022/03/28 04:52:19;;;;;;;22.77;14.45;;;;;;;;;;765138;77;26230;-72
2022/03/28 04:53:24;;;;;;;20.55;15.83;;;;;;;;;;765138;77;26689;-71
2022/03/28 04:54:27;;;;;;;28.40;18.48;;;;;;;;;;765143;77;26305;-71
2022/03/28 04:55:29;;;;;;;54.20;37.90;;;;;;;;;;765193;77;26657;-72
2022/03/28 04:56:37;;;;;;;63.40;41.37;;;;;;;;;;765155;77;26250;-71
2022/03/28 04:57:37;;;;;;;59.53;38.55;;;;;;;;;;765018;77;26783;-71
2022/03/28 04:58:40;;;;;;;43.63;30.48;;;;;;;;;;765503;77;26738;-72
2022/03/28 04:59:46;;;;;;;32.58;23.12;;;;;;;;;;765267;77;26715;-73
2022/03/28 05:07:47;;;;;;;32.10;18.90;;;;;;;;;;751815;79;26239;-71
2022/03/28 05:08:50;;;;;;;35.03;19.90;;;;;;;;;;751827;79;26304;-71
2022/03/28 05:23:50;;;;;;;22.58;18.40;;;;;;;;;;770008;77;26197;-72
2022/03/28 05:24:54;;;;;;;27.25;21.42;;;;;;;;;;769949;77;26301;-73
2022/03/28 05:25:57;;;;;;;33.63;24.60;;;;;;;;;;769894;77;26442;-73
2022/03/28 05:27:00;;;;;;;34.92;25.60;;;;;;;;;;769945;77;26248;-72
2022/03/28 05:28:05;;;;;;;37.50;23.85;;;;;;;;;;769921;77;26256;-73
2022/03/28 05:29:08;;;;;;;39.13;28.80;;;;;;;;;;770431;76;26257;-71
2022/03/28 05:32:26;;;;;;;43.35;31.45;;;;;;;;;;770708;77;26186;-73
2022/03/28 05:33:28;;;;;;;41.40;31.40;;;;;;;;;;759316;78;26270;-70
2022/03/28 05:34:31;;;;;;;43.90;31.87;;;;;;;;;;759342;77;26331;-69
2022/03/28 05:35:35;;;;;;;46.83;31.42;;;;;;;;;;759340;77;26266;-70
2022/03/28 05:36:39;;;;;;;45.73;31.62;;;;;;;;;;759386;78;26270;-70
2022/03/28 05:37:42;;;;;;;45.28;33.23;;;;;;;;;;759299;77;26258;-71
2022/03/28 05:38:45;;;;;;;44.88;29.50;;;;;;;;;;759247;78;26262;-71
2022/03/28 05:39:48;;;;;;;42.70;30.97;;;;;;;;;;759341;77;26317;-69
2022/03/28 05:40:50;;;;;;;41.00;28.80;;;;;;;;;;759350;78;26257;-71
2022/03/28 05:41:53;;;;;;;41.63;29.98;;;;;;;;;;759246;78;26321;-72
2022/03/28 05:42:56;;;;;;;40.80;28.25;;;;;;;;;;759263;78;26258;-70
2022/03/28 05:43:59;;;;;;;42.05;27.60;;;;;;;;;;759319;78;26274;-70
2022/03/28 05:45:04;;;;;;;36.68;27.87;;;;;;;;;;759354;78;26258;-67
2022/03/28 05:46:06;;;;;;;39.15;26.68;;;;;;;;;;759324;78;26254;-69
2022/03/28 05:47:10;;;;;;;37.75;27.20;;;;;;;;;;759282;78;26684;-71
2022/03/28 05:48:14;;;;;;;34.83;26.68;;;;;;;;;;759378;78;26255;-70
2022/03/28 05:49:19;;;;;;;33.40;26.17;;;;;;;;;;759284;77;26247;-72
2022/03/28 05:52:21;;;;;;;34.27;25.12;;;;;;;;;;757546;78;26199;-73
2022/03/28 05:53:24;;;;;;;34.73;25.72;;;;;;;;;;759394;78;26313;-71
2022/03/28 05:54:27;;;;;;;34.95;24.60;;;;;;;;;;759332;78;26315;-72
2022/03/28 05:55:31;;;;;;;32.50;25.92;;;;;;;;;;759275;78;26263;-69
2022/03/28 05:56:34;;;;;;;34.43;24.65;;;;;;;;;;759246;78;26265;-69
2022/03/28 05:57:38;;;;;;;35.75;25.65;;;;;;;;;;759331;78;26681;-70
2022/03/28 05:58:42;;;;;;;31.15;24.37;;;;;;;;;;759278;78;26773;-69
2022/03/28 05:59:47;;;;;;;33.02;23.12;;;;;;;;;;759318;78;26307;-71
2022/03/28 06:03:12;;;;;;;30.80;22.77;;;;;;;;;;760229;77;26253;-71
2022/03/28 06:04:13;;;;;;;28.65;22.62;;;;;;;;;;756252;78;26262;-72
2022/03/28 06:05:16;;;;;;;30.88;22.80;;;;;;;;;;759273;78;26380;-74
2022/03/28 06:06:19;;;;;;;27.60;21.65;;;;;;;;;;759348;78;26359;-73
2022/03/28 06:07:22;;;;;;;27.07;21.95;;;;;;;;;;759249;78;26417;-70
2022/03/28 06:08:25;;;;;;;28.65;21.90;;;;;;;;;;759284;78;26261;-70
2022/03/28 06:12:58;;;;;;;25.77;21.42;;;;;;;;;;759589;77;26276;-70
2022/03/28 06:14:01;;;;;;;28.40;22.80;;;;;;;;;;759266;78;26258;-73
2022/03/28 06:15:04;;;;;;;24.77;20.72;;;;;;;;;;759267;78;26273;-68
2022/03/28 06:16:06;;;;;;;29.72;20.70;;;;;;;;;;759249;78;26695;-68
2022/03/28 06:22:37;;;;;;;25.08;18.40;;;;;;;;;;777403;76;26328;-68
2022/03/28 06:25:25;;;;;;;21.97;17.62;;;;;;;;;;754947;77;26292;-70
2022/03/28 06:26:30;;;;;;;21.85;18.50;;;;;;;;;;753393;77;26747;-71
2022/03/28 06:27:33;;;;;;;25.62;19.27;;;;;;;;;;754455;78;26335;-72
2022/03/28 06:28:36;;;;;;;23.40;19.20;;;;;;;;;;752163;78;26753;-72
2022/03/28 06:31:41;;;;;;;29.02;19.87;;;;;;;;;;751300;79;26302;-71
2022/03/28 06:32:46;;;;;;;25.77;20.00;;;;;;;;;;744770;78;26276;-72
2022/03/28 06:33:48;;;;;;;27.05;22.27;;;;;;;;;;744755;80;26280;-72
2022/03/28 06:34:52;;;;;;;25.75;22.00;;;;;;;;;;744506;80;26726;-72
2022/03/28 06:35:56;;;;;;;30.37;21.70;;;;;;;;;;743444;80;26362;-70
2022/03/28 06:36:59;;;;;;;27.85;22.13;;;;;;;;;;743334;80;26800;-71
2022/03/28 06:38:02;;;;;;;25.08;20.70;;;;;;;;;;743396;80;26288;-75
2022/03/28 06:39:04;;;;;;;25.25;21.35;;;;;;;;;;743359;80;26285;-73
2022/03/28 06:41:52;;;;;;;29.42;20.90;;;;;;;;;;733918;80;26289;-70
2022/03/28 06:42:55;;;;;;;27.15;22.73;;;;;;;;;;746664;79;26682;-70
2022/03/28 06:44:01;;;;;;;28.80;24.52;;;;;;;;;;746600;79;26273;-73
2022/03/28 06:45:04;;;;;;;36.08;24.02;;;;;;;;;;746577;79;26274;-71
2022/03/28 06:46:08;;;;;;;29.70;22.90;;;;;;;;;;740705;80;26337;-72
2022/03/28 06:47:11;;;;;;;33.60;23.15;;;;;;;;;;741553;78;26258;-73
2022/03/28 06:48:16;;;;;;;28.62;23.00;;;;;;;;;;755035;78;26237;-72
2022/03/28 06:51:37;;;;;;;26.05;21.00;;;;;;;;;;755701;78;26200;-69
2022/03/28 06:52:40;;;;;;;25.80;21.77;;;;;;;;;;797087;74;26307;-70
2022/03/28 06:53:45;;;;;;;33.10;23.73;;;;;;;;;;797132;74;26273;-68
2022/03/28 06:54:48;;;;;;;30.90;24.12;;;;;;;;;;797102;74;26284;-71
2022/03/28 06:55:52;;;;;;;28.52;23.70;;;;;;;;;;797140;74;26311;-71
2022/03/28 06:56:56;;;;;;;32.13;24.77;;;;;;;;;;797114;74;26237;-71
2022/03/28 06:58:02;;;;;;;29.42;23.30;;;;;;;;;;797607;74;26333;-68
2022/03/28 06:59:08;;;;;;;28.87;22.65;;;;;;;;;;797248;74;26726;-69
2022/03/28 07:02:11;;;;;;;25.52;20.92;;;;;;;;;;783521;76;26661;-71
2022/03/28 07:03:18;;;;;;;28.60;20.62;;;;;;;;;;783431;76;26239;-69
2022/03/28 07:11:32;;;;;;;25.50;18.00;;;;;;;;;;783434;76;26280;-71
2022/03/28 07:12:35;;;;;;;23.92;18.35;;;;;;;;;;783738;76;26305;-69
2022/03/28 07:13:38;;;;;;;20.77;17.15;;;;;;;;;;783679;76;26706;-68
2022/03/28 07:14:42;;;;;;;24.90;18.20;;;;;;;;;;783309;76;26705;-70
2022/03/28 07:15:46;;;;;;;24.27;17.77;;;;;;;;;;784066;76;26372;-71
2022/03/28 07:16:52;;;;;;;21.93;17.02;;;;;;;;;;783658;75;26243;-71
2022/03/28 07:18:06;;;;;;;17.65;15.60;;;;;;;;;;783298;76;26708;-70
2022/03/28 07:19:08;;;;;;;19.75;15.98;;;;;;;;;;763788;77;26254;-71
2022/03/28 07:22:10;;;;;;;18.45;15.93;;;;;;;;;;739673;79;26220;-70
2022/03/28 07:26:53;;;;;;;19.32;15.40;;;;;;;;;;795163;74;26180;-72
2022/03/28 07:27:57;;;;;;;17.00;14.78;;;;;;;;;;795174;74;26665;-70
2022/03/28 07:29:04;;;;;;;21.10;14.90;;;;;;;;;;795177;74;26232;-72
2022/03/28 07:32:22;;;;;;;20.17;16.20;;;;;;;;;;750421;79;26222;-74
2022/03/28 07:33:26;;;;;;;16.80;15.05;;;;;;;;;;750489;78;26269;-75
2022/03/28 07:34:38;;;;;;;19.27;15.63;;;;;;;;;;750326;78;26352;-74
2022/03/28 07:35:41;;;;;;;17.87;14.65;;;;;;;;;;750227;79;26722;-72
2022/03/28 07:36:45;;;;;;;20.10;15.00;;;;;;;;;;750436;79;26271;-73
2022/03/28 07:37:49;;;;;;;19.35;14.55;;;;;;;;;;751019;78;26277;-73
2022/03/28 07:38:54;;;;;;;19.60;14.40;;;;;;;;;;750241;78;26793;-71
2022/03/28 07:41:56;;;;;;;18.45;14.55;;;;;;;;;;763591;77;26217;-71
2022/03/28 07:43:01;;;;;;;19.00;15.68;;;;;;;;;;763636;77;26244;-71
2022/03/28 07:44:05;;;;;;;17.23;15.38;;;;;;;;;;763795;77;26306;-71
2022/03/28 07:45:15;;;;;;;18.20;15.40;;;;;;;;;;763818;77;26313;-69
2022/03/28 07:46:18;;;;;;;21.93;15.63;;;;;;;;;;763625;77;26694;-71
2022/03/28 07:47:27;;;;;;;18.97;14.63;;;;;;;;;;763687;77;26232;-70
2022/03/28 07:48:31;;;;;;;19.95;15.40;;;;;;;;;;760779;77;27024;-71
2022/03/28 07:52:01;;;;;;;16.63;13.70;;;;;;;;;;809413;73;26255;-72
2022/03/28 07:53:05;;;;;;;15.00;13.40;;;;;;;;;;811172;73;26464;-71
2022/03/28 08:02:16;;;;;;;14.83;12.90;;;;;;;;;;781442;76;26468;-73
2022/03/28 08:03:19;;;;;;;15.47;13.70;;;;;;;;;;781390;76;26853;-72
2022/03/28 08:04:23;;;;;;;15.33;13.70;;;;;;;;;;781245;76;26436;-71
2022/03/28 08:05:27;;;;;;;19.97;15.10;;;;;;;;;;781287;76;26435;-71
2022/03/28 08:06:30;;;;;;;16.13;14.37;;;;;;;;;;781310;76;26260;-75
2022/03/28 08:07:36;;;;;;;14.83;13.43;;;;;;;;;;781302;76;26507;-76
2022/03/28 08:10:44;;;;;;;14.80;13.33;;;;;;;;;;750696;78;26618;-74
2022/03/28 08:11:47;;;;;;;14.10;12.60;;;;;;;;;;779821;76;26633;-73
2022/03/28 08:12:51;;;;;;;15.10;12.67;;;;;;;;;;804049;73;26532;-75
2022/03/28 08:13:55;;;;;;;14.07;12.10;;;;;;;;;;805139;73;26356;-74
2022/03/28 08:15:02;;;;;;;15.60;13.10;;;;;;;;;;792426;75;26825;-74
2022/03/28 08:16:08;;;;;;;16.73;13.37;;;;;;;;;;795254;73;26417;-73
2022/03/28 08:17:11;;;;;;;17.57;15.30;;;;;;;;;;804777;73;26450;-74
2022/03/28 08:18:16;;;;;;;15.33;13.67;;;;;;;;;;805203;73;26816;-73
2022/03/28 08:22:49;;;;;;;17.37;15.50;;;;;;;;;;769344;77;26832;-71
2022/03/28 08:23:56;;;;;;;18.13;15.67;;;;;;;;;;769320;77;26485;-72
2022/03/28 08:25:00;;;;;;;17.33;15.27;;;;;;;;;;769283;77;26369;-72
2022/03/28 08:26:06;;;;;;;17.43;15.53;;;;;;;;;;769237;77;26680;-71
2022/03/28 08:27:11;;;;;;;16.60;14.90;;;;;;;;;;773254;75;26481;-72
2022/03/28 08:28:18;;;;;;;16.80;15.10;;;;;;;;;;769272;77;26436;-72
2022/03/28 08:31:37;;;;;;;21.87;16.83;;;;;;;;;;787307;75;26966;-72
2022/03/28 08:32:42;;;;;;;23.60;17.57;;;;;;;;;;787875;75;26479;-73
2022/03/28 08:33:47;;;;;;;21.67;17.50;;;;;;;;;;788403;75;26502;-72
2022/03/28 08:34:50;;;;;;;19.97;16.20;;;;;;;;;;788186;75;26508;-71
2022/03/28 08:35:53;;;;;;;19.10;16.33;;;;;;;;;;788189;75;26859;-72
2022/03/28 08:36:57;;;;;;;20.03;17.00;;;;;;;;;;787737;75;26358;-75
2022/03/28 08:38:01;;;;;;;18.17;16.27;;;;;;;;;;788167;75;26402;-75
2022/03/28 08:41:12;;;;;;;17.57;15.70;;;;;;;;;;761245;78;26388;-73
2022/03/28 08:42:12;;;;;;;19.90;15.23;;;;;;;;;;763285;76;26422;-74
2022/03/28 08:43:19;;;;;;;18.43;16.43;;;;;;;;;;763225;76;26435;-74
2022/03/28 08:51:34;;;;;;;19.23;17.23;;;;;;;;;;791977;75;26308;-73
2022/03/28 08:52:40;;;;;;;19.27;17.00;;;;;;;;;;791794;75;26377;-74
2022/03/28 08:53:45;;;;;;;18.50;16.60;;;;;;;;;;791838;75;26486;-73
2022/03/28 08:54:48;;;;;;;20.37;17.50;;;;;;;;;;791022;75;26454;-74
2022/03/28 08:55:52;;;;;;;20.23;16.20;;;;;;;;;;790765;75;26855;-73
2022/03/28 08:56:56;;;;;;;17.07;15.27;;;;;;;;;;790438;75;26341;-73
2022/03/28 08:58:00;;;;;;;17.73;15.80;;;;;;;;;;790526;75;26506;-73
2022/03/28 09:01:04;;;;;;;19.03;17.03;;;;;;;;;;764039;77;26416;-73
2022/03/28 09:02:09;;;;;;;26.37;18.97;;;;;;;;;;764078;77;26935;-73
2022/03/28 09:03:15;;;;;;;19.33;17.27;;;;;;;;;;757669;77;26935;-74
2022/03/28 09:04:19;;;;;;;18.50;16.60;;;;;;;;;;751628;77;26913;-72
2022/03/28 09:05:30;;;;;;;19.80;17.40;;;;;;;;;;750921;79;26442;-73
2022/03/28 09:06:36;;;;;;;22.40;17.00;;;;;;;;;;750540;79;26509;-73
2022/03/28 09:07:42;;;;;;;19.00;17.00;;;;;;;;;;749515;79;26443;-72
2022/03/28 09:12:29;;;;;;;23.30;18.87;;;;;;;;;;748397;79;26446;-70
2022/03/28 09:13:37;;;;;;;20.73;17.60;;;;;;;;;;764119;77;26489;-71
2022/03/28 09:14:45;;;;;;;20.10;16.90;;;;;;;;;;759172;77;26543;-71
2022/03/28 09:15:53;;;;;;;19.23;16.80;;;;;;;;;;746227;79;26916;-71
2022/03/28 09:17:04;;;;;;;20.40;17.60;;;;;;;;;;759651;78;26316;-72
2022/03/28 09:18:13;;;;;;;19.50;17.23;;;;;;;;;;756341;78;26492;-70
2022/03/28 09:21:10;;;;;;;19.87;16.73;;;;;;;;;;757161;78;26952;-72
2022/03/28 09:22:14;;;;;;;17.07;15.47;;;;;;;;;;756503;78;26572;-71
2022/03/28 09:23:36;;;;;;;21.13;16.93;;;;;;;;;;747047;78;26834;-73
2022/03/28 09:24:41;;;;;;;18.80;16.10;;;;;;;;;;745752;79;26564;-74
2022/03/28 09:25:50;;;;;;;19.57;16.90;;;;;;;;;;745856;79;26498;-71
2022/03/28 09:27:11;;;;;;;23.23;17.27;;;;;;;;;;745794;79;26476;-72
2022/03/28 09:30:18;;;;;;;18.63;16.53;;;;;;;;;;746074;79;26821;-72
2022/03/28 09:31:23;;;;;;;20.70;18.40;;;;;;;;;;747922;79;26503;-74
2022/03/28 09:32:33;;;;;;;23.13;17.93;;;;;;;;;;778739;76;26466;-73
2022/03/28 09:41:01;;;;;;;17.13;12.80;;;;;;;;;;778756;76;26849;-70
2022/03/28 09:42:09;;;;;;;16.00;13.40;;;;;;;;;;778762;76;26511;-69
2022/03/28 09:43:21;;;;;;;19.60;13.37;;;;;;;;;;778685;76;26866;-71
2022/03/28 09:44:39;;;;;;;19.77;15.10;;;;;;;;;;778871;76;26470;-70
2022/03/28 09:45:50;;;;;;;15.60;13.90;;;;;;;;;;779044;75;26531;-72
2022/03/28 09:46:55;;;;;;;21.20;15.60;;;;;;;;;;759334;78;26494;-70
2022/03/28 09:48:04;;;;;;;18.77;15.43;;;;;;;;;;738610;80;26553;-70
2022/03/28 09:51:12;;;;;;;19.40;16.03;;;;;;;;;;793995;75;26348;-72
2022/03/28 09:52:19;;;;;;;19.10;15.40;;;;;;;;;;794064;75;26369;-72
2022/03/28 09:53:25;;;;;;;17.30;14.10;;;;;;;;;;793949;75;26890;-69
2022/03/28 09:54:30;;;;;;;18.70;14.73;;;;;;;;;;792660;75;26915;-72
2022/03/28 09:55:53;;;;;;;16.67;14.90;;;;;;;;;;792415;75;26816;-71
2022/03/28 09:57:07;;;;;;;16.27;14.50;;;;;;;;;;792385;75;26389;-68
2022/03/28 10:00:20;;;;;;;15.97;14.27;;;;;;;;;;792886;75;26462;-71
2022/03/28 10:01:42;;;;;;;19.83;17.60;;;;;;;;;;746936;78;26650;-70
2022/03/28 10:02:44;;;;;;;19.67;16.10;;;;;;;;;;751467;79;26556;-71
2022/03/28 10:03:52;;;;;;;16.00;14.30;;;;;;;;;;750373;79;26636;-72
2022/03/28 10:04:56;;;;;;;15.10;13.63;;;;;;;;;;737799;80;26951;-70
2022/03/28 10:06:02;;;;;;;18.80;16.07;;;;;;;;;;745815;79;26525;-71
2022/03/28 10:07:05;;;;;;;17.10;14.43;;;;;;;;;;745774;79;26514;-72
2022/03/28 10:10:24;;;;;;;22.30;17.70;;;;;;;;;;746812;79;26444;-72
2022/03/28 10:11:31;;;;;;;26.47;19.63;;;;;;;;;;763750;77;26497;-71
2022/03/28 10:12:35;;;;;;;23.97;18.30;;;;;;;;;;774415;76;26295;-70
2022/03/28 10:13:39;;;;;;;19.30;15.17;;;;;;;;;;774284;76;26357;-72
2022/03/28 10:14:42;;;;;;;18.50;14.70;;;;;;;;;;765130;77;26549;-72
2022/03/28 10:15:46;;;;;;;17.50;14.87;;;;;;;;;;763748;77;26476;-71
2022/03/28 10:16:51;;;;;;;17.33;14.10;;;;;;;;;;760587;78;26983;-71
2022/03/28 10:17:54;;;;;;;16.33;14.60;;;;;;;;;;760219;78;26380;-71
2022/03/28 10:21:11;;;;;;;16.13;14.43;;;;;;;;;;788037;75;26170;-71
2022/03/28 10:26:14;;;;;;;19.47;14.90;;;;;;;;;;773639;77;26387;-69
2022/03/28 10:27:19;;;;;;;18.07;15.67;;;;;;;;;;788524;75;26235;-70
2022/03/28 10:32:15;;;;;;;20.00;16.47;;;;;;;;;;766803;77;26416;-75
2022/03/28 10:33:23;;;;;;;19.13;17.10;;;;;;;;;;781537;76;26465;-68
2022/03/28 10:34:40;;;;;;;20.57;17.33;;;;;;;;;;781798;76;26312;-70
2022/03/28 10:35:59;;;;;;;19.87;17.03;;;;;;;;;;781481;76;27075;-71
2022/03/28 10:37:18;;;;;;;20.63;16.90;;;;;;;;;;776928;76;26482;-69